Time;durP1;ratioP1;P1;durP2;ratioP2;P2;SDS_P1;SDS_P2;PMS_P1;PMS_P2;Temp;Humidity;BMP_temperature;BMP_pressure;BME280_temperature;BME280_humidity;BME280_pressure;Samples;Min_cycle;Max_cycle;Signal;HPM_P1;HPM_P2
2021/03/09 00:00:27;;;;;;;33.63;14.50;;;;;;;-4.69;74.54;101069.25;98073;1174;81839;-73
2021/03/09 00:02:51;;;;;;;29.90;14.80;;;;;;;-4.72;74.56;101075.53;98101;1168;69301;-62
2021/03/09 00:04:57;;;;;;;27.90;14.10;;;;;;;-4.76;74.16;101073.99;98057;1170;86760;-64
2021/03/09 00:07:03;;;;;;;26.70;13.90;;;;;;;-4.81;74.68;101074.20;98076;1168;75335;-64
2021/03/09 00:09:09;;;;;;;31.10;13.40;;;;;;;-4.85;74.53;101070.03;98040;1175;90158;-64
2021/03/09 00:11:15;;;;;;;32.15;13.70;;;;;;;-4.83;74.50;101072.58;98091;1168;82221;-65
2021/03/09 00:13:21;;;;;;;31.50;12.90;;;;;;;-4.86;74.83;101070.95;98097;1174;69138;-63
2021/03/09 00:15:27;;;;;;;28.25;12.90;;;;;;;-4.88;74.18;101074.59;98105;1168;85974;-64
2021/03/09 00:17:33;;;;;;;36.60;15.15;;;;;;;-4.90;74.63;101077.31;98042;1175;74900;-64
2021/03/09 00:19:42;;;;;;;32.10;15.00;;;;;;;-4.94;74.74;101082.78;98050;1175;90075;-64
2021/03/09 00:21:48;;;;;;;34.37;15.20;;;;;;;-4.96;74.43;101074.11;98049;1175;83923;-72
2021/03/09 00:23:53;;;;;;;32.90;14.40;;;;;;;-4.95;74.70;101084.59;98041;1174;69187;-72
2021/03/09 00:25:59;;;;;;;34.05;15.35;;;;;;;-4.97;74.75;101085.59;98053;1173;86980;-70
2021/03/09 00:28:06;;;;;;;40.10;15.50;;;;;;;-5.00;74.55;101085.73;98058;1168;74904;-72
2021/03/09 00:30:15;;;;;;;32.73;14.40;;;;;;;-5.04;74.80;101078.90;98089;1175;89551;-73
2021/03/09 00:32:24;;;;;;;29.80;14.75;;;;;;;-5.08;74.60;101078.19;98055;1173;81723;-64
2021/03/09 00:34:30;;;;;;;35.05;14.80;;;;;;;-5.07;74.37;101079.91;98088;1173;68113;-64
2021/03/09 00:36:38;;;;;;;31.73;13.73;;;;;;;-5.09;74.65;101080.91;98023;1175;86662;-65
2021/03/09 00:38:44;;;;;;;29.20;14.10;;;;;;;-5.15;74.83;101084.69;98078;1170;74464;-64
2021/03/09 00:40:50;;;;;;;29.40;12.80;;;;;;;-5.14;75.00;101088.18;98089;1175;89359;-66
2021/03/09 00:42:56;;;;;;;36.75;13.90;;;;;;;-5.12;74.84;101091.59;98064;1175;82544;-72
2021/03/09 00:45:03;;;;;;;30.63;13.83;;;;;;;-5.14;74.80;101088.18;98094;1175;68969;-74
2021/03/09 00:47:09;;;;;;;26.40;13.40;;;;;;;-5.14;75.08;101093.45;98104;1174;86433;-64
2021/03/09 00:49:16;;;;;;;29.80;14.95;;;;;;;-5.14;75.13;101096.08;98056;1175;74439;-64
2021/03/09 00:51:25;;;;;;;25.60;12.90;;;;;;;-5.18;75.31;101094.50;98069;1175;89756;-72
2021/03/09 00:53:31;;;;;;;26.13;12.90;;;;;;;-5.17;75.31;101098.86;98058;1175;82478;-72
2021/03/09 00:55:36;;;;;;;28.35;13.35;;;;;;;-5.17;75.36;101098.86;98047;1173;69154;-73
2021/03/09 00:57:42;;;;;;;32.70;14.65;;;;;;;-5.13;75.34;101100.41;98048;1168;86299;-64
2021/03/09 00:59:51;;;;;;;28.85;13.45;;;;;;;-5.18;75.43;101092.73;98061;1175;75956;-63
2021/03/09 01:01:57;;;;;;;31.40;12.70;;;;;;;-5.16;75.15;101095.31;98081;1175;89399;-63
2021/03/09 01:04:06;;;;;;;27.70;12.50;;;;;;;-5.13;74.95;101089.87;98059;1175;83997;-63
2021/03/09 01:06:12;;;;;;;27.40;12.00;;;;;;;-5.13;75.13;101095.13;98111;1175;69126;-64
2021/03/09 01:08:19;;;;;;;23.15;11.55;;;;;;;-5.13;75.30;101089.87;98057;1175;86449;-64
2021/03/09 01:10:25;;;;;;;30.43;12.70;;;;;;;-5.14;75.27;101089.05;98078;1173;75861;-65
2021/03/09 01:12:31;;;;;;;32.15;13.45;;;;;;;-5.11;75.55;101083.59;98084;1173;88594;-64
2021/03/09 01:14:37;;;;;;;28.23;13.23;;;;;;;-5.10;75.21;101084.45;98025;1168;81638;-62
2021/03/09 01:16:43;;;;;;;31.10;12.60;;;;;;;-5.12;75.29;101083.69;98047;1168;69100;-72
2021/03/09 01:18:53;;;;;;;27.30;12.45;;;;;;;-5.15;75.13;101083.83;98081;1175;87262;-72
2021/03/09 01:20:59;;;;;;;27.77;13.03;;;;;;;-5.14;75.54;101082.91;98076;1172;74878;-72
2021/03/09 01:23:05;;;;;;;24.85;12.25;;;;;;;-5.17;75.29;101083.06;98113;1170;89273;-72
2021/03/09 01:25:12;;;;;;;33.35;13.55;;;;;;;-5.19;75.06;101079.66;98067;1174;83002;-72
2021/03/09 01:27:19;;;;;;;24.00;11.40;;;;;;;-5.20;75.24;101085.83;98082;1174;69139;-72
2021/03/09 01:29:25;;;;;;;24.20;12.30;;;;;;;-5.28;75.57;101073.04;98061;1175;87705;-73
2021/03/09 01:31:31;;;;;;;25.35;12.70;;;;;;;-5.30;75.43;101081.94;98061;1175;75997;-62
2021/03/09 01:33:40;;;;;;;27.35;11.40;;;;;;;-5.32;75.31;101079.36;98054;1168;89036;-63
2021/03/09 01:35:46;;;;;;;25.55;12.00;;;;;;;-5.30;75.44;101079.31;98038;1168;82748;-65
2021/03/09 01:37:52;;;;;;;25.53;12.03;;;;;;;-5.31;75.68;101085.48;98066;1174;69128;-63
2021/03/09 01:39:57;;;;;;;27.73;12.93;;;;;;;-5.33;75.59;101079.45;98067;1175;86506;-63
2021/03/09 01:42:04;;;;;;;25.70;12.90;;;;;;;-5.34;75.38;101081.23;98091;1168;74886;-64
2021/03/09 01:44:13;;;;;;;29.80;12.50;;;;;;;-5.34;75.63;101081.23;98070;1175;88190;-63
2021/03/09 01:46:23;;;;;;;30.67;13.97;;;;;;;-5.36;75.78;101081.28;98072;1168;83142;-71
2021/03/09 01:48:38;;;;;;;23.70;12.60;;;;;;;-5.47;75.52;101083.59;98050;1168;69267;-71
2021/03/09 01:50:45;;;;;;;29.05;12.80;;;;;;;-5.49;75.68;101085.42;98044;1175;87014;-73
2021/03/09 01:52:51;;;;;;;28.95;12.45;;;;;;;-5.46;75.88;101082.64;98360;1171;74831;-73
2021/03/09 01:54:57;;;;;;;27.90;12.80;;;;;;;-5.49;75.75;101085.42;98073;1167;89013;-72
2021/03/09 01:57:04;;;;;;;24.20;11.93;;;;;;;-5.54;76.10;101079.52;98340;1171;83780;-63
2021/03/09 01:59:11;;;;;;;27.45;12.05;;;;;;;-5.56;75.78;101086.64;98333;1171;69158;-64
2021/03/09 02:01:18;;;;;;;28.00;11.50;;;;;;;-5.58;75.85;101083.23;98118;1171;86889;-64
2021/03/09 02:03:24;;;;;;;23.45;10.15;;;;;;;-5.63;76.06;101085.20;98303;1171;75552;-64
2021/03/09 02:05:35;;;;;;;23.95;11.80;;;;;;;-5.64;75.81;101095.81;98308;1172;90512;-64
2021/03/09 02:07:42;;;;;;;23.75;10.60;;;;;;;-5.63;75.85;101087.00;98362;1171;81425;-63
2021/03/09 02:09:48;;;;;;;25.10;11.15;;;;;;;-5.65;75.77;101089.69;98311;1172;68224;-63
2021/03/09 02:12:07;;;;;;;24.00;10.20;;;;;;;-5.63;75.59;101090.46;98329;1167;86285;-63
2021/03/09 02:14:24;;;;;;;25.70;10.80;;;;;;;-5.60;75.73;101086.83;98326;1170;75860;-63
2021/03/09 02:16:38;;;;;;;25.65;10.60;;;;;;;-5.61;76.22;101091.27;98315;1172;89820;-63
2021/03/09 02:18:50;;;;;;;;;;;;;;;-5.68;75.69;101092.45;98389;1168;82589;-63
2021/03/09 02:21:51;;;;;;;24.77;10.43;;;;;;;-5.67;75.93;101095.95;98312;1172;70758;-64
2021/03/09 02:24:47;;;;;;;22.30;10.03;;;;;;;-5.68;75.66;101091.59;98354;1170;85440;-63
2021/03/09 02:27:43;;;;;;;19.80;9.93;;;;;;;-5.68;75.74;101097.72;98342;1167;74817;-73
2021/03/09 02:30:17;;;;;;;24.20;10.35;;;;;;;-5.68;75.69;101097.72;98170;1172;89846;-72
2021/03/09 02:32:31;;;;;;;22.65;10.40;;;;;;;-5.64;76.22;101103.70;98296;1171;82775;-72
2021/03/09 02:34:38;;;;;;;;;;;;;;;-5.63;76.04;101090.46;98357;1172;66712;-72
2021/03/09 02:36:45;;;;;;;21.80;10.50;;;;;;;-5.62;75.84;101086.92;98315;1171;85530;-63
2021/03/09 02:38:56;;;;;;;25.90;11.00;;;;;;;-5.64;75.88;101096.66;98320;1169;74761;-64
2021/03/09 02:41:07;;;;;;;24.40;11.50;;;;;;;-5.66;75.82;101098.49;98322;1171;89736;-64
2021/03/09 02:43:17;;;;;;;23.37;9.63;;;;;;;-5.67;76.04;101095.95;98057;1174;84008;-72
2021/03/09 02:45:24;;;;;;;22.83;10.30;;;;;;;-5.70;75.95;101094.31;98327;1171;69132;-72
2021/03/09 02:47:35;;;;;;;20.90;10.27;;;;;;;-5.73;75.73;101099.70;98351;1171;86530;-73
2021/03/09 02:49:44;;;;;;;20.00;9.00;;;;;;;-5.74;76.28;101102.42;98302;1172;76096;-72
2021/03/09 02:51:51;;;;;;;20.60;9.50;;;;;;;-5.79;76.02;101102.61;98315;1170;90977;-64
2021/03/09 02:54:00;;;;;;;21.07;10.23;;;;;;;-5.85;76.17;101100.28;98277;1170;82204;-64
2021/03/09 02:56:08;;;;;;;18.15;9.50;;;;;;;-5.91;75.99;101105.84;98305;1171;69286;-64
2021/03/09 02:58:19;;;;;;;21.70;9.40;;;;;;;-5.90;75.98;101111.93;98290;1171;86826;-63
2021/03/09 03:00:26;;;;;;;17.70;9.20;;;;;;;-5.87;76.06;101111.80;98294;1171;75048;-63
2021/03/09 03:02:35;;;;;;;17.90;9.20;;;;;;;-5.93;76.12;101112.09;98354;1170;88478;-64
2021/03/09 03:04:47;;;;;;;20.45;9.10;;;;;;;-5.92;76.05;101119.04;98309;1168;82514;-64
2021/03/09 03:06:56;;;;;;;20.30;8.80;;;;;;;-5.96;76.24;101118.34;98301;1172;69260;-64
2021/03/09 03:09:04;;;;;;;18.65;8.90;;;;;;;-5.94;76.06;101113.86;98271;1170;85999;-64
2021/03/09 03:11:12;;;;;;;21.70;10.60;;;;;;;-5.93;75.82;101115.55;98288;1170;74725;-65
2021/03/09 03:13:20;;;;;;;21.80;8.00;;;;;;;-5.94;76.09;101113.00;98383;1171;89787;-64
2021/03/09 03:15:26;;;;;;;21.70;9.10;;;;;;;-5.99;76.17;101108.78;98353;1172;82615;-65
2021/03/09 03:17:34;;;;;;;18.30;9.45;;;;;;;-5.96;76.12;101113.09;98367;1166;69161;-73
2021/03/09 03:19:42;;;;;;;17.60;9.30;;;;;;;-5.97;76.03;101106.11;98375;1170;86207;-64
2021/03/09 03:21:50;;;;;;;21.20;9.60;;;;;;;-5.97;76.08;101111.36;98372;1171;74600;-72
2021/03/09 03:24:01;;;;;;;20.97;9.20;;;;;;;-5.97;76.01;101106.11;98371;1166;89257;-72
2021/03/09 03:26:13;;;;;;;20.65;8.70;;;;;;;-6.00;76.00;101106.23;98322;1170;82120;-72
2021/03/09 03:28:23;;;;;;;19.65;9.05;;;;;;;-6.04;76.18;101109.91;98347;1168;69146;-73
2021/03/09 03:30:29;;;;;;;18.50;10.20;;;;;;;-6.04;76.31;101109.91;98334;1171;86951;-72
2021/03/09 03:32:37;;;;;;;16.60;8.40;;;;;;;-6.07;76.13;101110.91;98364;1172;75900;-63
2021/03/09 03:34:44;;;;;;;19.90;9.10;;;;;;;-6.14;76.25;101112.10;98359;1170;89693;-64
2021/03/09 03:36:54;;;;;;;22.00;8.80;;;;;;;-6.14;76.31;101108.61;98348;1167;82747;-64
2021/03/09 03:39:00;;;;;;;20.07;8.23;;;;;;;-6.18;76.31;101112.31;98361;1168;69123;-64
2021/03/09 03:41:08;;;;;;;21.60;9.25;;;;;;;-6.19;76.32;101116.71;98337;1171;86867;-65
2021/03/09 03:43:17;;;;;;;21.70;9.85;;;;;;;-6.20;76.50;101112.36;98337;1171;74936;-70
2021/03/09 03:45:24;;;;;;;17.80;8.20;;;;;;;-6.22;76.24;101111.58;98322;1172;89178;-72
2021/03/09 03:47:30;;;;;;;17.50;8.20;;;;;;;-6.22;76.52;101118.61;98286;1172;83922;-72
2021/03/09 03:49:36;;;;;;;18.80;8.35;;;;;;;-6.23;76.31;101114.26;98330;1166;69115;-71
2021/03/09 03:51:51;;;;;;;23.00;9.50;;;;;;;-6.23;76.31;101120.38;98331;1172;85344;-71
2021/03/09 03:54:17;;;;;;;19.70;8.70;;;;;;;-6.21;76.57;101118.56;98353;1171;75027;-72
2021/03/09 03:56:34;;;;;;;16.60;8.30;;;;;;;-6.19;76.50;101121.97;98310;1171;88869;-63
2021/03/09 03:58:49;;;;;;;18.55;8.40;;;;;;;-6.25;76.52;101116.97;98293;1172;82308;-63
2021/03/09 04:00:56;;;;;;;19.90;8.50;;;;;;;-6.22;76.30;101119.47;98298;1171;69250;-63
2021/03/09 04:03:03;;;;;;;18.97;9.30;;;;;;;-6.22;76.51;101129.98;98349;1170;86712;-72
2021/03/09 04:05:12;;;;;;;21.00;9.40;;;;;;;-6.25;76.35;101124.00;98367;1172;75603;-72
2021/03/09 04:07:23;;;;;;;18.00;10.00;;;;;;;-6.32;76.84;101126.05;98341;1171;88332;-63
2021/03/09 04:09:29;;;;;;;23.60;9.15;;;;;;;-6.35;76.31;101120.06;98311;1170;81758;-63
2021/03/09 04:11:36;;;;;;;19.75;8.60;;;;;;;-6.33;76.46;101124.33;98317;1170;68074;-72
2021/03/09 04:13:45;;;;;;;20.00;8.40;;;;;;;-6.34;76.48;101117.35;98293;1171;86881;-72
2021/03/09 04:15:52;;;;;;;17.90;8.70;;;;;;;-6.34;76.14;101122.61;98291;1170;74831;-71
2021/03/09 04:18:00;;;;;;;15.87;8.23;;;;;;;-6.32;76.26;101115.53;98357;1172;89954;-63
2021/03/09 04:20:09;;;;;;;19.75;9.60;;;;;;;-6.35;76.45;101120.06;98278;1172;83085;-64
2021/03/09 04:22:16;;;;;;;20.80;9.00;;;;;;;-6.38;76.48;101113.16;98312;1167;69123;-71
2021/03/09 04:24:27;;;;;;;17.35;7.55;;;;;;;-6.41;76.78;101120.31;98312;1167;86102;-71
2021/03/09 04:26:33;;;;;;;17.90;7.95;;;;;;;-6.45;76.89;101114.33;98331;1171;75439;-63
2021/03/09 04:28:41;;;;;;;20.50;8.30;;;;;;;-6.46;76.53;101117.03;98320;1172;89689;-64
2021/03/09 04:30:48;;;;;;;20.90;8.85;;;;;;;-6.45;76.47;101111.70;98318;1166;82787;-63
2021/03/09 04:32:57;;;;;;;18.45;9.40;;;;;;;-6.48;76.68;101108.36;98382;1167;69160;-74
2021/03/09 04:35:08;;;;;;;20.87;8.40;;;;;;;-6.45;76.64;101113.50;98290;1171;86524;-72
2021/03/09 04:37:15;;;;;;;17.15;8.75;;;;;;;-6.48;76.77;101113.63;98352;1172;75858;-72
2021/03/09 04:39:24;;;;;;;19.60;7.97;;;;;;;-6.49;76.98;101109.27;98296;1172;90104;-71
2021/03/09 04:41:30;;;;;;;21.43;8.90;;;;;;;-6.45;76.80;101113.50;98246;1166;82628;-71
2021/03/09 04:43:37;;;;;;;16.80;7.80;;;;;;;-6.39;76.73;101110.58;98318;1172;69257;-71
2021/03/09 04:45:43;;;;;;;18.95;8.90;;;;;;;-6.42;76.58;101108.94;98327;1167;86380;-73
2021/03/09 04:47:50;;;;;;;19.80;8.90;;;;;;;-6.39;76.70;101107.95;98332;1168;74957;-64
2021/03/09 04:49:58;;;;;;;20.15;8.50;;;;;;;-6.39;76.90;101100.07;98320;1170;90091;-64
2021/03/09 04:52:05;;;;;;;18.35;8.40;;;;;;;-6.40;76.86;101098.38;98375;1170;81578;-71
2021/03/09 04:54:14;;;;;;;19.40;8.60;;;;;;;-6.37;76.76;101103.52;98364;1171;69263;-71
2021/03/09 04:56:20;;;;;;;17.05;7.95;;;;;;;-6.37;76.67;101106.14;98370;1166;86179;-65
2021/03/09 04:58:27;;;;;;;19.15;8.70;;;;;;;-6.38;76.98;101102.66;98320;1172;74543;-65
2021/03/09 05:00:33;;;;;;;17.47;8.90;;;;;;;-6.36;76.88;101107.83;98325;1168;89712;-64
2021/03/09 05:02:39;;;;;;;18.10;8.30;;;;;;;-6.35;77.05;101106.92;98309;1169;83080;-71
2021/03/09 05:04:44;;;;;;;18.05;9.25;;;;;;;-6.33;76.92;101112.95;98309;1171;69144;-70
2021/03/09 05:06:50;;;;;;;19.25;9.50;;;;;;;-6.28;76.62;101113.61;98322;1171;86675;-65
2021/03/09 05:08:56;;;;;;;20.35;8.95;;;;;;;-6.35;76.75;101112.17;98290;1171;75154;-65
2021/03/09 05:11:02;;;;;;;18.40;9.10;;;;;;;-6.39;77.12;101114.07;98302;1172;89916;-65
2021/03/09 05:13:09;;;;;;;20.33;8.57;;;;;;;-6.41;76.91;101107.17;98289;1164;83165;-72
2021/03/09 05:15:19;;;;;;;19.90;8.50;;;;;;;-6.38;77.20;101114.94;98298;1166;69136;-70
2021/03/09 05:17:25;;;;;;;19.80;8.90;;;;;;;-6.37;77.09;101120.11;98317;1169;85835;-65
2021/03/09 05:19:31;;;;;;;20.50;10.10;;;;;;;-6.35;77.34;101120.92;98325;1172;74775;-65
2021/03/09 05:21:37;;;;;;;20.15;8.95;;;;;;;-6.26;76.88;101122.30;98291;1172;89687;-69
2021/03/09 05:23:43;;;;;;;18.90;9.70;;;;;;;-6.19;76.71;101126.37;98269;1171;81981;-71
2021/03/09 05:25:48;;;;;;;18.50;9.40;;;;;;;-6.12;77.00;101123.40;98317;1170;69279;-71
2021/03/09 05:27:54;;;;;;;18.65;9.30;;;;;;;-6.07;76.99;101117.96;98304;1167;85931;-65
2021/03/09 05:30:01;;;;;;;19.65;9.50;;;;;;;-6.03;76.44;101116.89;98302;1172;74582;-64
2021/03/09 05:32:08;;;;;;;19.07;10.13;;;;;;;-6.02;77.41;101129.13;98312;1168;88635;-64
2021/03/09 05:34:14;;;;;;;19.10;9.20;;;;;;;-5.93;77.05;101123.44;98317;1170;81483;-65
2021/03/09 05:36:20;;;;;;;19.80;9.35;;;;;;;-5.88;77.23;101128.52;98344;1168;68377;-65
2021/03/09 05:38:25;;;;;;;18.10;8.80;;;;;;;-5.82;77.43;101133.48;98336;1167;87015;-66
2021/03/09 05:40:32;;;;;;;21.80;10.20;;;;;;;-5.74;77.47;101131.36;98309;1171;75633;-65
2021/03/09 05:42:38;;;;;;;19.50;9.80;;;;;;;-5.63;77.76;101131.73;98363;1167;89482;-71
2021/03/09 05:44:44;;;;;;;20.93;10.13;;;;;;;-5.46;77.46;101124.77;98352;1171;83087;-72
2021/03/09 05:46:50;;;;;;;21.50;10.30;;;;;;;-5.33;77.66;101122.44;98273;1172;69098;-66
2021/03/09 05:48:57;;;;;;;21.95;11.50;;;;;;;-5.13;77.43;101132.86;98278;1172;87087;-65
2021/03/09 05:51:04;;;;;;;23.77;10.10;;;;;;;-4.82;77.63;101132.26;98289;1172;75038;-65
2021/03/09 05:53:09;;;;;;;20.50;10.00;;;;;;;-4.47;77.58;101131.38;98329;1168;88304;-65
2021/03/09 05:55:16;;;;;;;21.20;10.90;;;;;;;-4.05;77.50;101125.71;98318;1171;82741;-65
2021/03/09 05:57:22;;;;;;;21.85;11.20;;;;;;;-3.45;77.35;101129.53;98323;1170;69282;-70
2021/03/09 05:59:28;;;;;;;23.65;12.40;;;;;;;-2.88;77.42;101121.99;98306;1171;86714;-72
2021/03/09 06:01:34;;;;;;;25.60;11.75;;;;;;;-2.39;76.85;101136.75;98276;1172;75145;-70
2021/03/09 06:03:43;;;;;;;23.35;11.00;;;;;;;-1.92;77.13;101132.13;98325;1170;89727;-70
2021/03/09 06:05:49;;;;;;;23.85;12.70;;;;;;;-1.53;75.93;101120.90;98292;1170;82905;-70
2021/03/09 06:07:55;;;;;;;27.75;12.25;;;;;;;-1.34;76.13;101131.20;98338;1167;69273;-71
2021/03/09 06:10:01;;;;;;;22.30;12.87;;;;;;;-1.23;76.09;101134.03;98315;1172;86185;-70
2021/03/09 06:12:17;;;;;;;22.80;11.70;;;;;;;-1.32;76.04;101131.98;98355;1170;74912;-65
2021/03/09 06:14:23;;;;;;;22.80;11.15;;;;;;;-1.33;75.65;101135.56;98341;1172;89487;-64
2021/03/09 06:16:36;;;;;;;24.00;11.60;;;;;;;-1.37;74.80;101134.03;98287;1171;83683;-63
2021/03/09 06:18:59;;;;;;;23.20;11.70;;;;;;;-1.46;74.51;101129.33;98326;1166;69161;-64
2021/03/09 06:21:15;;;;;;;21.45;12.60;;;;;;;-1.18;74.79;101134.58;98317;1170;86701;-63
2021/03/09 06:23:28;;;;;;;26.10;12.10;;;;;;;-0.85;75.47;101143.05;98362;1172;75887;-63
2021/03/09 06:25:38;;;;;;;25.90;13.30;;;;;;;-0.38;74.83;101131.13;98412;1170;88679;-64
2021/03/09 06:27:45;;;;;;;19.70;11.20;;;;;;;0.29;74.89;101136.24;98360;1170;81251;-71
2021/03/09 06:29:55;;;;;;;22.70;12.35;;;;;;;0.90;73.97;101140.77;98317;1168;69215;-71
2021/03/09 06:32:06;;;;;;;24.05;12.60;;;;;;;0.99;73.20;101141.92;98356;1170;86976;-64
2021/03/09 06:34:29;;;;;;;23.05;13.35;;;;;;;0.88;72.68;101147.98;98336;1172;74380;-64
2021/03/09 06:36:35;;;;;;;29.10;12.95;;;;;;;1.34;72.97;101155.32;98319;1172;89839;-72
2021/03/09 06:38:44;;;;;;;25.00;13.75;;;;;;;1.62;72.91;101152.34;98330;1170;82879;-71
2021/03/09 06:41:10;;;;;;;23.95;12.90;;;;;;;1.71;72.14;101151.63;98353;1171;66877;-71
2021/03/09 06:43:20;;;;;;;23.75;12.30;;;;;;;1.49;72.00;101170.16;98333;1172;85614;-63
2021/03/09 06:45:26;;;;;;;23.37;12.13;;;;;;;1.39;71.01;101159.34;98343;1167;75991;-63
2021/03/09 06:47:41;;;;;;;20.30;12.10;;;;;;;1.42;71.43;101163.59;98343;1171;89321;-70
2021/03/09 06:49:55;;;;;;;20.95;11.50;;;;;;;1.46;71.52;101165.91;98300;1164;82616;-70
2021/03/09 06:52:15;;;;;;;21.85;12.70;;;;;;;1.75;70.95;101167.29;98330;1171;69353;-63
2021/03/09 06:54:21;;;;;;;24.40;13.20;;;;;;;1.88;71.19;101161.88;98353;1170;85897;-62
2021/03/09 06:56:28;;;;;;;23.43;12.80;;;;;;;2.20;70.09;101167.42;98355;1170;75089;-62
2021/03/09 06:58:40;;;;;;;28.70;14.10;;;;;;;2.40;70.06;101164.09;98370;1171;89782;-62
2021/03/09 07:00:46;;;;;;;25.70;15.00;;;;;;;2.32;69.57;101166.49;98346;1171;82041;-63
2021/03/09 07:02:52;;;;;;;25.40;12.60;;;;;;;2.37;68.57;101166.98;98393;1172;68362;-71
2021/03/09 07:05:09;;;;;;;20.10;11.40;;;;;;;2.35;68.28;101172.45;98325;1171;86047;-71
2021/03/09 07:07:21;;;;;;;20.70;10.90;;;;;;;2.56;68.12;101177.07;98365;1168;76192;-61
2021/03/09 07:09:26;;;;;;;18.73;10.20;;;;;;;2.78;67.69;101174.42;98324;1172;89000;-61
2021/03/09 07:11:36;;;;;;;19.07;10.20;;;;;;;2.86;67.24;101174.67;98318;1170;81555;-70
2021/03/09 07:13:45;;;;;;;15.35;8.65;;;;;;;2.80;67.26;101173.33;98323;1167;69151;-72
2021/03/09 07:15:52;;;;;;;15.20;7.90;;;;;;;2.92;66.43;101177.71;98296;1170;86435;-72
2021/03/09 07:17:58;;;;;;;12.30;6.95;;;;;;;2.92;66.56;101169.70;98379;1171;75341;-62
2021/03/09 07:20:09;;;;;;;13.05;7.00;;;;;;;3.10;65.40;101171.89;98324;1170;90457;-63
2021/03/09 07:22:19;;;;;;;13.00;7.50;;;;;;;3.46;65.12;101166.25;98330;1171;83167;-71
2021/03/09 07:24:26;;;;;;;12.60;7.83;;;;;;;3.74;65.39;101160.32;98326;1171;69254;-72
2021/03/09 07:26:32;;;;;;;12.80;7.30;;;;;;;4.12;64.69;101157.96;98325;1171;86679;-62
2021/03/09 07:28:44;;;;;;;15.00;7.65;;;;;;;4.52;63.78;101163.45;98321;1172;75275;-62
2021/03/09 07:30:55;;;;;;;12.85;7.45;;;;;;;4.56;62.31;101161.37;98290;1172;89890;-64
2021/03/09 07:33:04;;;;;;;14.90;7.80;;;;;;;4.57;62.68;101171.92;98340;1171;83222;-71
2021/03/09 07:35:13;;;;;;;19.10;10.50;;;;;;;4.32;62.51;101161.63;98102;1172;67965;-71
2021/03/09 07:37:19;;;;;;;15.05;9.65;;;;;;;4.55;61.85;101156.98;98319;1170;85778;-70
2021/03/09 07:39:29;;;;;;;16.50;10.10;;;;;;;4.54;61.20;101161.48;98048;1167;75923;-68
2021/03/09 07:41:36;;;;;;;22.00;10.75;;;;;;;4.57;61.25;101165.72;98100;1174;89684;-63
2021/03/09 07:43:43;;;;;;;19.65;10.10;;;;;;;4.80;60.55;101169.09;98338;1172;82984;-64
2021/03/09 07:45:49;;;;;;;16.60;8.65;;;;;;;4.86;60.42;101176.59;98283;1171;69582;-64
2021/03/09 07:47:58;;;;;;;15.95;7.60;;;;;;;4.98;59.15;101173.67;98356;1171;87005;-61
2021/03/09 07:50:12;;;;;;;16.75;9.00;;;;;;;5.32;58.73;101177.76;98320;1171;76260;-63
2021/03/09 07:52:22;;;;;;;24.43;12.27;;;;;;;6.04;58.39;101164.07;98325;1171;89341;-64
2021/03/09 07:54:31;;;;;;;14.40;7.30;;;;;;;6.89;57.71;101164.04;98295;1170;83034;-65
2021/03/09 07:56:37;;;;;;;24.05;11.55;;;;;;;7.68;55.35;101160.64;98341;1170;69186;-64
2021/03/09 07:58:44;;;;;;;17.47;9.33;;;;;;;7.51;54.14;101168.67;98308;1167;86573;-63
2021/03/09 08:00:53;;;;;;;14.50;7.10;;;;;;;7.80;54.09;101160.43;98304;1171;74933;-65
2021/03/09 08:03:00;;;;;;;11.40;5.70;;;;;;;8.00;52.82;101161.95;98323;1166;89337;-65
2021/03/09 08:05:08;;;;;;;9.80;5.50;;;;;;;8.67;52.08;101156.81;98326;1171;83440;-64
2021/03/09 08:08:04;;;;;;;16.20;8.00;;;;;;;9.67;50.59;101156.09;98359;1167;68953;-64
2021/03/09 08:10:45;;;;;;;10.03;4.87;;;;;;;10.46;47.75;101157.20;98365;1170;86671;-70
2021/03/09 08:12:50;;;;;;;10.40;7.40;;;;;;;10.88;47.69;101154.23;98349;1170;75692;-68
2021/03/09 08:15:20;;;;;;;20.70;10.10;;;;;;;11.72;47.08;101153.59;98304;1170;88923;-70
2021/03/09 08:17:29;;;;;;;13.20;6.70;;;;;;;12.07;44.00;101150.30;98058;1175;81450;-62
2021/03/09 08:19:45;;;;;;;16.80;8.05;;;;;;;12.43;45.23;101148.65;98348;1168;69212;-62
2021/03/09 08:21:57;;;;;;;17.05;8.10;;;;;;;12.63;43.20;101146.27;98352;1167;86265;-71
2021/03/09 08:24:07;;;;;;;11.75;6.85;;;;;;;12.39;41.57;101144.61;98337;1167;74945;-71
2021/03/09 08:26:49;;;;;;;8.90;5.50;;;;;;;12.94;42.12;101146.94;98326;1172;89456;-69
2021/03/09 08:28:56;;;;;;;9.05;5.10;;;;;;;12.90;39.50;101144.80;98313;1172;82984;-67
2021/03/09 08:31:26;;;;;;;7.40;4.35;;;;;;;12.25;39.54;101145.40;98335;1171;66845;-73
2021/03/09 08:33:32;;;;;;;6.40;4.30;;;;;;;12.30;39.21;101150.30;98219;1171;85487;-66
2021/03/09 08:35:39;;;;;;;6.40;4.20;;;;;;;12.09;38.56;101148.24;98209;1172;75384;-65
2021/03/09 08:37:50;;;;;;;8.85;4.60;;;;;;;12.00;38.63;101151.20;98176;1172;89486;-65
2021/03/09 08:40:11;;;;;;;13.05;7.90;;;;;;;12.12;39.10;101150.59;98297;1167;83192;-64
2021/03/09 08:42:16;;;;;;;11.45;5.50;;;;;;;12.01;38.22;101142.89;98314;1171;69122;-61
2021/03/09 08:44:23;;;;;;;7.90;4.50;;;;;;;11.46;36.74;101147.59;98299;1167;86865;-62
2021/03/09 08:46:29;;;;;;;7.95;5.05;;;;;;;11.43;37.73;101153.34;98274;1170;75251;-60
2021/03/09 08:48:58;;;;;;;16.10;10.40;;;;;;;11.47;38.56;101146.58;98334;1172;90391;-61
2021/03/09 08:51:11;;;;;;;9.77;5.43;;;;;;;11.81;37.03;101149.81;98222;1166;83168;-62
2021/03/09 08:53:31;;;;;;;8.25;4.60;;;;;;;11.59;36.51;101148.70;98313;1172;69093;-59
2021/03/09 08:55:36;;;;;;;6.40;3.70;;;;;;;11.52;36.99;101152.30;98338;1171;86104;-60
2021/03/09 08:57:42;;;;;;;7.20;3.70;;;;;;;11.73;36.83;101145.27;98324;1171;75063;-74
2021/03/09 08:59:52;;;;;;;10.80;4.50;;;;;;;11.87;35.75;101149.08;98336;1172;90519;-75
2021/03/09 09:02:14;;;;;;;10.00;4.00;;;;;;;12.04;35.57;101150.66;98330;1171;81406;-64
2021/03/09 09:04:23;;;;;;;10.75;4.55;;;;;;;12.19;36.44;101154.28;98279;1172;66745;-68
2021/03/09 09:06:31;;;;;;;7.73;4.53;;;;;;;12.65;35.13;101151.48;98267;1171;87329;-71
2021/03/09 09:08:37;;;;;;;8.95;7.00;;;;;;;12.50;36.23;101146.03;98066;1173;75195;-68
2021/03/09 09:10:46;;;;;;;12.55;7.50;;;;;;;12.62;35.76;101144.57;98273;1171;89080;-74
2021/03/09 09:12:54;;;;;;;11.40;7.40;;;;;;;12.43;36.08;101148.65;98290;1171;83626;-74
2021/03/09 09:15:16;;;;;;;12.00;8.90;;;;;;;12.96;36.69;101139.45;98324;1172;69774;-72
2021/03/09 09:17:21;;;;;;;8.83;5.97;;;;;;;12.88;35.91;101141.44;98304;1172;86379;-65
2021/03/09 09:19:27;;;;;;;5.70;3.40;;;;;;;12.48;35.00;101142.67;98336;1168;75197;-64
2021/03/09 09:21:45;;;;;;;8.15;4.45;;;;;;;12.64;35.48;101138.95;98282;1167;90037;-72
2021/03/09 09:23:51;;;;;;;7.20;4.20;;;;;;;12.07;34.64;101139.47;98319;1170;82889;-71
2021/03/09 09:26:00;;;;;;;6.47;3.63;;;;;;;10.64;34.92;101147.03;98287;1171;69075;-71
2021/03/09 09:28:07;;;;;;;11.60;4.60;;;;;;;9.40;36.20;101149.07;98377;1171;85517;-62
2021/03/09 09:30:22;;;;;;;11.40;4.20;;;;;;;9.98;37.09;101149.03;98341;1166;75036;-60
2021/03/09 09:32:43;;;;;;;8.50;4.70;;;;;;;11.07;36.34;101132.20;98315;1172;89284;-62
2021/03/09 09:35:04;;;;;;;7.10;3.80;;;;;;;11.77;35.99;101135.79;98292;1171;83072;-61
2021/03/09 09:37:14;;;;;;;8.15;3.75;;;;;;;11.57;35.83;101134.52;98328;1167;69129;-63
2021/03/09 09:39:20;;;;;;;5.33;3.33;;;;;;;11.97;35.47;101125.33;98082;1167;85453;-66
2021/03/09 09:41:28;;;;;;;6.80;3.90;;;;;;;12.44;35.89;101127.81;98285;1172;75156;-73
2021/03/09 09:43:36;;;;;;;6.40;3.20;;;;;;;12.61;35.12;101131.22;98284;1167;89605;-71
2021/03/09 09:45:43;;;;;;;5.20;2.95;;;;;;;11.73;34.19;101133.59;98129;1171;83502;-76
2021/03/09 09:47:51;;;;;;;4.20;2.30;;;;;;;9.96;33.16;101141.13;98071;1167;69128;-76
2021/03/09 09:49:57;;;;;;;4.07;2.80;;;;;;;9.19;34.60;101138.73;98335;1166;85885;-75
2021/03/09 09:52:03;;;;;;;4.33;2.60;;;;;;;9.35;33.99;101135.23;98331;1172;75028;-76
2021/03/09 09:54:13;;;;;;;5.60;2.70;;;;;;;9.35;35.96;101141.48;98342;1168;89364;-78
2021/03/09 09:56:26;;;;;;;3.57;2.53;;;;;;;9.83;35.51;101140.74;98309;1170;81426;-62